sensor_id;sensor_type;location;lat;lon;timestamp;temperature;humidity
4097;DHT22;2062;50.694;7.246;2023-07-09T00:01:41;26.00;32.60
4097;DHT22;2062;50.694;7.246;2023-07-09T00:04:09;26.00;32.60
4097;DHT22;2062;50.694;7.246;2023-07-09T00:06:37;26.00;32.50
4097;DHT22;2062;50.694;7.246;2023-07-09T00:09:04;26.00;32.40
4097;DHT22;2062;50.694;7.246;2023-07-09T00:11:32;25.90;32.00
4097;DHT22;2062;50.694;7.246;2023-07-09T00:13:59;25.80;31.90
4097;DHT22;2062;50.694;7.246;2023-07-09T00:16:26;25.90;31.90
4097;DHT22;2062;50.694;7.246;2023-07-09T00:18:53;25.80;31.80
4097;DHT22;2062;50.694;7.246;2023-07-09T00:21:21;25.90;31.80
4097;DHT22;2062;50.694;7.246;2023-07-09T00:23:48;25.90;32.00
4097;DHT22;2062;50.694;7.246;2023-07-09T00:26:16;25.80;32.00
4097;DHT22;2062;50.694;7.246;2023-07-09T00:28:44;25.80;31.90
4097;DHT22;2062;50.694;7.246;2023-07-09T00:31:13;25.80;31.90
4097;DHT22;2062;50.694;7.246;2023-07-09T00:33:41;25.80;31.90
4097;DHT22;2062;50.694;7.246;2023-07-09T00:36:13;25.80;32.00
4097;DHT22;2062;50.694;7.246;2023-07-09T00:38:41;25.80;32.00
4097;DHT22;2062;50.694;7.246;2023-07-09T00:41:15;25.80;32.10
4097;DHT22;2062;50.694;7.246;2023-07-09T00:43:47;25.80;32.20
4097;DHT22;2062;50.694;7.246;2023-07-09T00:49:01;25.80;32.20
4097;DHT22;2062;50.694;7.246;2023-07-09T00:51:31;25.80;32.20
4097;DHT22;2062;50.694;7.246;2023-07-09T00:54:18;25.80;32.10
4097;DHT22;2062;50.694;7.246;2023-07-09T00:56:49;25.80;32.20
4097;DHT22;2062;50.694;7.246;2023-07-09T00:59:22;25.80;32.30
4097;DHT22;2062;50.694;7.246;2023-07-09T01:01:50;25.70;32.20
4097;DHT22;2062;50.694;7.246;2023-07-09T01:04:19;25.80;32.20
4097;DHT22;2062;50.694;7.246;2023-07-09T01:06:51;25.70;32.30
4097;DHT22;2062;50.694;7.246;2023-07-09T01:09:19;25.70;32.30
4097;DHT22;2062;50.694;7.246;2023-07-09T01:11:45;25.70;32.50
4097;DHT22;2062;50.694;7.246;2023-07-09T01:14:14;25.70;32.50
4097;DHT22;2062;50.694;7.246;2023-07-09T01:16:49;25.70;32.50
4097;DHT22;2062;50.694;7.246;2023-07-09T01:19:22;25.70;32.60
4097;DHT22;2062;50.694;7.246;2023-07-09T01:21:53;25.70;32.60
4097;DHT22;2062;50.694;7.246;2023-07-09T01:27:28;25.70;32.60
4097;DHT22;2062;50.694;7.246;2023-07-09T01:29:56;25.70;32.50
4097;DHT22;2062;50.694;7.246;2023-07-09T01:32:23;25.70;32.70
4097;DHT22;2062;50.694;7.246;2023-07-09T01:34:52;25.60;32.90
4097;DHT22;2062;50.694;7.246;2023-07-09T01:37:22;25.60;33.00
4097;DHT22;2062;50.694;7.246;2023-07-09T01:39:50;25.60;33.00
4097;DHT22;2062;50.694;7.246;2023-07-09T01:42:17;25.60;33.20
4097;DHT22;2062;50.694;7.246;2023-07-09T01:44:47;25.50;33.30
4097;DHT22;2062;50.694;7.246;2023-07-09T01:47:14;25.40;33.40
4097;DHT22;2062;50.694;7.246;2023-07-09T01:49:41;25.40;33.50
4097;DHT22;2062;50.694;7.246;2023-07-09T01:52:12;25.40;33.60
4097;DHT22;2062;50.694;7.246;2023-07-09T01:54:41;25.30;33.70
4097;DHT22;2062;50.694;7.246;2023-07-09T01:57:17;25.30;33.80
4097;DHT22;2062;50.694;7.246;2023-07-09T01:59:48;25.20;34.00
4097;DHT22;2062;50.694;7.246;2023-07-09T02:02:15;25.10;34.10
4097;DHT22;2062;50.694;7.246;2023-07-09T02:04:46;25.10;34.30
4097;DHT22;2062;50.694;7.246;2023-07-09T02:07:13;25.00;34.30
4097;DHT22;2062;50.694;7.246;2023-07-09T02:09:42;24.90;34.50
4097;DHT22;2062;50.694;7.246;2023-07-09T02:12:10;24.90;34.70
4097;DHT22;2062;50.694;7.246;2023-07-09T02:14:38;24.80;34.60
4097;DHT22;2062;50.694;7.246;2023-07-09T02:17:05;24.70;34.80
4097;DHT22;2062;50.694;7.246;2023-07-09T02:19:33;24.70;35.00
4097;DHT22;2062;50.694;7.246;2023-07-09T02:22:00;24.60;34.80
4097;DHT22;2062;50.694;7.246;2023-07-09T02:24:26;24.60;35.10
4097;DHT22;2062;50.694;7.246;2023-07-09T02:26:55;24.50;35.00
4097;DHT22;2062;50.694;7.246;2023-07-09T02:29:22;24.40;35.20
4097;DHT22;2062;50.694;7.246;2023-07-09T02:31:51;24.40;35.30
4097;DHT22;2062;50.694;7.246;2023-07-09T02:34:18;24.30;35.30
4097;DHT22;2062;50.694;7.246;2023-07-09T02:36:45;24.30;35.30
4097;DHT22;2062;50.694;7.246;2023-07-09T02:39:13;24.30;35.70
4097;DHT22;2062;50.694;7.246;2023-07-09T02:41:41;24.20;35.60
4097;DHT22;2062;50.694;7.246;2023-07-09T02:44:09;24.10;35.80
4097;DHT22;2062;50.694;7.246;2023-07-09T02:46:36;24.10;35.80
4097;DHT22;2062;50.694;7.246;2023-07-09T02:49:03;24.10;35.90
4097;DHT22;2062;50.694;7.246;2023-07-09T02:51:31;24.00;36.00
4097;DHT22;2062;50.694;7.246;2023-07-09T02:54:00;24.00;36.20
4097;DHT22;2062;50.694;7.246;2023-07-09T02:56:27;23.90;36.40
4097;DHT22;2062;50.694;7.246;2023-07-09T02:58:54;23.90;36.30
4097;DHT22;2062;50.694;7.246;2023-07-09T03:01:22;23.80;36.50
4097;DHT22;2062;50.694;7.246;2023-07-09T03:03:50;23.80;36.70
4097;DHT22;2062;50.694;7.246;2023-07-09T03:06:19;23.70;36.60
4097;DHT22;2062;50.694;7.246;2023-07-09T03:08:46;23.70;36.90
4097;DHT22;2062;50.694;7.246;2023-07-09T03:11:13;23.60;37.10
4097;DHT22;2062;50.694;7.246;2023-07-09T03:13:40;23.60;37.10
4097;DHT22;2062;50.694;7.246;2023-07-09T03:16:07;23.60;37.30
4097;DHT22;2062;50.694;7.246;2023-07-09T03:18:35;23.50;37.50
4097;DHT22;2062;50.694;7.246;2023-07-09T03:21:03;23.50;37.60
4097;DHT22;2062;50.694;7.246;2023-07-09T03:23:30;23.40;37.40
4097;DHT22;2062;50.694;7.246;2023-07-09T03:25:56;23.40;37.50
4097;DHT22;2062;50.694;7.246;2023-07-09T03:28:25;23.30;37.80
4097;DHT22;2062;50.694;7.246;2023-07-09T03:30:54;23.30;38.20
4097;DHT22;2062;50.694;7.246;2023-07-09T03:33:21;23.20;38.00
4097;DHT22;2062;50.694;7.246;2023-07-09T03:35:49;23.10;38.20
4097;DHT22;2062;50.694;7.246;2023-07-09T03:38:16;23.10;38.20
4097;DHT22;2062;50.694;7.246;2023-07-09T03:40:44;23.10;38.30
4097;DHT22;2062;50.694;7.246;2023-07-09T03:43:11;23.00;39.40
4097;DHT22;2062;50.694;7.246;2023-07-09T03:45:38;22.90;39.10
4097;DHT22;2062;50.694;7.246;2023-07-09T03:48:05;22.90;39.40
4097;DHT22;2062;50.694;7.246;2023-07-09T03:50:32;22.90;39.30
4097;DHT22;2062;50.694;7.246;2023-07-09T03:53:00;22.80;38.90
4097;DHT22;2062;50.694;7.246;2023-07-09T03:55:27;22.80;38.90
4097;DHT22;2062;50.694;7.246;2023-07-09T03:57:54;22.70;39.30
4097;DHT22;2062;50.694;7.246;2023-07-09T04:00:21;22.70;39.30
4097;DHT22;2062;50.694;7.246;2023-07-09T04:02:48;22.70;39.40
4097;DHT22;2062;50.694;7.246;2023-07-09T04:05:15;22.70;39.50
4097;DHT22;2062;50.694;7.246;2023-07-09T04:07:43;22.60;39.90
4097;DHT22;2062;50.694;7.246;2023-07-09T04:10:13;22.60;39.90
4097;DHT22;2062;50.694;7.246;2023-07-09T04:12:39;22.60;40.70
4097;DHT22;2062;50.694;7.246;2023-07-09T04:15:07;22.60;39.60
4097;DHT22;2062;50.694;7.246;2023-07-09T04:17:34;22.60;40.10
4097;DHT22;2062;50.694;7.246;2023-07-09T04:20:02;22.50;40.30
4097;DHT22;2062;50.694;7.246;2023-07-09T04:22:31;22.50;40.40
4097;DHT22;2062;50.694;7.246;2023-07-09T04:24:58;22.50;40.30
4097;DHT22;2062;50.694;7.246;2023-07-09T04:27:26;22.50;40.70
4097;DHT22;2062;50.694;7.246;2023-07-09T04:29:54;22.50;40.40
4097;DHT22;2062;50.694;7.246;2023-07-09T04:32:21;22.50;40.50
4097;DHT22;2062;50.694;7.246;2023-07-09T04:34:48;22.50;40.70
4097;DHT22;2062;50.694;7.246;2023-07-09T04:37:15;22.40;41.50
4097;DHT22;2062;50.694;7.246;2023-07-09T04:39:43;22.40;41.50
4097;DHT22;2062;50.694;7.246;2023-07-09T04:42:11;22.40;41.40
4097;DHT22;2062;50.694;7.246;2023-07-09T04:44:40;22.40;41.60
4097;DHT22;2062;50.694;7.246;2023-07-09T04:47:07;22.40;41.70
4097;DHT22;2062;50.694;7.246;2023-07-09T04:49:34;22.40;41.40
4097;DHT22;2062;50.694;7.246;2023-07-09T04:52:01;22.40;41.50
4097;DHT22;2062;50.694;7.246;2023-07-09T04:54:28;22.40;41.80
4097;DHT22;2062;50.694;7.246;2023-07-09T04:56:56;22.40;42.00
4097;DHT22;2062;50.694;7.246;2023-07-09T04:59:24;22.40;42.00
4097;DHT22;2062;50.694;7.246;2023-07-09T05:01:52;22.40;42.20
4097;DHT22;2062;50.694;7.246;2023-07-09T05:04:19;22.40;42.00
4097;DHT22;2062;50.694;7.246;2023-07-09T05:06:46;22.40;42.50
4097;DHT22;2062;50.694;7.246;2023-07-09T05:09:13;22.50;42.00
4097;DHT22;2062;50.694;7.246;2023-07-09T05:11:39;22.50;41.80
4097;DHT22;2062;50.694;7.246;2023-07-09T05:14:06;22.50;42.50
4097;DHT22;2062;50.694;7.246;2023-07-09T05:16:33;22.50;42.20
4097;DHT22;2062;50.694;7.246;2023-07-09T05:19:01;22.50;42.30
4097;DHT22;2062;50.694;7.246;2023-07-09T05:21:28;22.60;42.10
4097;DHT22;2062;50.694;7.246;2023-07-09T05:23:55;22.60;42.40
4097;DHT22;2062;50.694;7.246;2023-07-09T05:26:22;22.70;42.60
4097;DHT22;2062;50.694;7.246;2023-07-09T05:28:48;22.70;42.40
4097;DHT22;2062;50.694;7.246;2023-07-09T05:31:15;22.70;42.60
4097;DHT22;2062;50.694;7.246;2023-07-09T05:33:42;22.70;42.40
4097;DHT22;2062;50.694;7.246;2023-07-09T05:36:10;22.80;42.60
4097;DHT22;2062;50.694;7.246;2023-07-09T05:38:41;22.80;42.60
4097;DHT22;2062;50.694;7.246;2023-07-09T05:41:08;22.90;42.80
4097;DHT22;2062;50.694;7.246;2023-07-09T05:43:34;23.00;43.00
4097;DHT22;2062;50.694;7.246;2023-07-09T05:46:01;23.10;43.30
4097;DHT22;2062;50.694;7.246;2023-07-09T05:48:29;23.20;43.70
4097;DHT22;2062;50.694;7.246;2023-07-09T05:50:55;23.30;44.40
4097;DHT22;2062;50.694;7.246;2023-07-09T05:53:23;23.50;45.20
4097;DHT22;2062;50.694;7.246;2023-07-09T05:55:53;23.60;45.40
4097;DHT22;2062;50.694;7.246;2023-07-09T05:58:19;23.80;45.20
4097;DHT22;2062;50.694;7.246;2023-07-09T06:00:49;24.00;44.90
4097;DHT22;2062;50.694;7.246;2023-07-09T06:03:19;24.20;44.50
4097;DHT22;2062;50.694;7.246;2023-07-09T06:05:47;24.40;44.20
4097;DHT22;2062;50.694;7.246;2023-07-09T06:08:15;24.60;44.10
4097;DHT22;2062;50.694;7.246;2023-07-09T06:10:52;24.80;44.20
4097;DHT22;2062;50.694;7.246;2023-07-09T06:13:19;25.00;43.70
4097;DHT22;2062;50.694;7.246;2023-07-09T06:15:46;25.20;44.00
4097;DHT22;2062;50.694;7.246;2023-07-09T06:18:13;25.30;44.20
4097;DHT22;2062;50.694;7.246;2023-07-09T06:20:40;25.60;44.20
4097;DHT22;2062;50.694;7.246;2023-07-09T06:23:07;25.80;44.00
4097;DHT22;2062;50.694;7.246;2023-07-09T06:25:34;26.10;44.40
4097;DHT22;2062;50.694;7.246;2023-07-09T06:28:02;26.20;43.80
4097;DHT22;2062;50.694;7.246;2023-07-09T06:30:29;26.50;43.50
4097;DHT22;2062;50.694;7.246;2023-07-09T06:32:55;26.70;43.10
4097;DHT22;2062;50.694;7.246;2023-07-09T06:35:22;27.00;43.20
4097;DHT22;2062;50.694;7.246;2023-07-09T06:37:49;27.20;42.90
4097;DHT22;2062;50.694;7.246;2023-07-09T06:40:16;27.40;42.50
4097;DHT22;2062;50.694;7.246;2023-07-09T06:42:43;27.60;42.00
4097;DHT22;2062;50.694;7.246;2023-07-09T06:45:11;27.90;41.50
4097;DHT22;2062;50.694;7.246;2023-07-09T06:47:38;28.10;41.60
4097;DHT22;2062;50.694;7.246;2023-07-09T06:50:06;28.30;41.10
4097;DHT22;2062;50.694;7.246;2023-07-09T06:52:33;28.50;40.80
4097;DHT22;2062;50.694;7.246;2023-07-09T06:54:59;28.70;40.40
4097;DHT22;2062;50.694;7.246;2023-07-09T06:57:26;29.00;40.40
4097;DHT22;2062;50.694;7.246;2023-07-09T06:59:53;29.20;40.50
4097;DHT22;2062;50.694;7.246;2023-07-09T07:02:21;29.40;39.90
4097;DHT22;2062;50.694;7.246;2023-07-09T07:04:48;29.60;39.30
4097;DHT22;2062;50.694;7.246;2023-07-09T07:07:15;29.80;38.90
4097;DHT22;2062;50.694;7.246;2023-07-09T07:09:42;30.10;39.60
4097;DHT22;2062;50.694;7.246;2023-07-09T07:12:09;30.30;39.10
4097;DHT22;2062;50.694;7.246;2023-07-09T07:14:36;30.50;39.10
4097;DHT22;2062;50.694;7.246;2023-07-09T07:17:03;30.60;38.80
4097;DHT22;2062;50.694;7.246;2023-07-09T07:19:31;30.90;38.50
4097;DHT22;2062;50.694;7.246;2023-07-09T07:21:58;31.00;38.80
4097;DHT22;2062;50.694;7.246;2023-07-09T07:24:24;31.30;37.70
4097;DHT22;2062;50.694;7.246;2023-07-09T07:26:51;31.40;36.70
4097;DHT22;2062;50.694;7.246;2023-07-09T07:29:18;31.50;36.80
4097;DHT22;2062;50.694;7.246;2023-07-09T07:31:45;31.80;37.00
4097;DHT22;2062;50.694;7.246;2023-07-09T07:34:11;31.90;37.40
4097;DHT22;2062;50.694;7.246;2023-07-09T07:36:39;32.10;37.00
4097;DHT22;2062;50.694;7.246;2023-07-09T07:39:06;32.30;37.20
4097;DHT22;2062;50.694;7.246;2023-07-09T07:41:33;32.50;36.00
4097;DHT22;2062;50.694;7.246;2023-07-09T07:44:00;32.60;35.70
4097;DHT22;2062;50.694;7.246;2023-07-09T07:46:26;32.90;35.30
4097;DHT22;2062;50.694;7.246;2023-07-09T07:48:54;33.00;35.20
4097;DHT22;2062;50.694;7.246;2023-07-09T07:51:21;33.20;34.00
4097;DHT22;2062;50.694;7.246;2023-07-09T07:53:49;33.30;34.50
4097;DHT22;2062;50.694;7.246;2023-07-09T07:56:16;33.50;35.00
4097;DHT22;2062;50.694;7.246;2023-07-09T07:58:43;33.60;34.70
4097;DHT22;2062;50.694;7.246;2023-07-09T08:01:10;33.70;34.20
4097;DHT22;2062;50.694;7.246;2023-07-09T08:03:37;33.90;34.00
4097;DHT22;2062;50.694;7.246;2023-07-09T08:06:04;34.10;33.50
4097;DHT22;2062;50.694;7.246;2023-07-09T08:08:31;34.20;33.30
4097;DHT22;2062;50.694;7.246;2023-07-09T08:11:05;34.30;32.80
4097;DHT22;2062;50.694;7.246;2023-07-09T08:13:33;34.50;33.30
4097;DHT22;2062;50.694;7.246;2023-07-09T08:16:00;34.60;32.70
4097;DHT22;2062;50.694;7.246;2023-07-09T08:18:27;34.80;32.90
4097;DHT22;2062;50.694;7.246;2023-07-09T08:20:54;35.00;32.60
4097;DHT22;2062;50.694;7.246;2023-07-09T08:23:20;35.10;32.50
4097;DHT22;2062;50.694;7.246;2023-07-09T08:25:52;35.20;32.90
4097;DHT22;2062;50.694;7.246;2023-07-09T08:28:20;35.30;32.70
4097;DHT22;2062;50.694;7.246;2023-07-09T08:30:47;35.40;32.50
4097;DHT22;2062;50.694;7.246;2023-07-09T08:33:14;35.50;32.00
4097;DHT22;2062;50.694;7.246;2023-07-09T08:35:42;35.60;31.40
4097;DHT22;2062;50.694;7.246;2023-07-09T08:38:09;35.70;31.00
4097;DHT22;2062;50.694;7.246;2023-07-09T08:40:39;35.80;32.00
4097;DHT22;2062;50.694;7.246;2023-07-09T08:43:12;35.90;31.00
4097;DHT22;2062;50.694;7.246;2023-07-09T08:45:49;36.00;32.30
4097;DHT22;2062;50.694;7.246;2023-07-09T08:48:25;36.10;31.90
4097;DHT22;2062;50.694;7.246;2023-07-09T08:50:59;36.20;31.10
4097;DHT22;2062;50.694;7.246;2023-07-09T08:53:32;36.20;30.70
4097;DHT22;2062;50.694;7.246;2023-07-09T08:56:00;36.30;31.20
4097;DHT22;2062;50.694;7.246;2023-07-09T08:58:29;36.40;30.50
4097;DHT22;2062;50.694;7.246;2023-07-09T09:01:01;36.50;30.00
4097;DHT22;2062;50.694;7.246;2023-07-09T09:03:34;36.60;30.00
4097;DHT22;2062;50.694;7.246;2023-07-09T09:06:11;36.60;30.00
4097;DHT22;2062;50.694;7.246;2023-07-09T09:08:40;36.80;30.70
4097;DHT22;2062;50.694;7.246;2023-07-09T09:11:14;36.90;30.20
4097;DHT22;2062;50.694;7.246;2023-07-09T09:13:42;37.10;29.20
4097;DHT22;2062;50.694;7.246;2023-07-09T09:16:21;37.10;29.20
4097;DHT22;2062;50.694;7.246;2023-07-09T09:18:49;37.20;30.10
4097;DHT22;2062;50.694;7.246;2023-07-09T09:21:22;37.40;28.20
4097;DHT22;2062;50.694;7.246;2023-07-09T09:23:51;37.60;29.00
4097;DHT22;2062;50.694;7.246;2023-07-09T09:26:22;37.60;29.20
4097;DHT22;2062;50.694;7.246;2023-07-09T09:28:51;37.80;28.70
4097;DHT22;2062;50.694;7.246;2023-07-09T09:31:20;38.00;29.20
4097;DHT22;2062;50.694;7.246;2023-07-09T09:33:48;38.10;28.40
4097;DHT22;2062;50.694;7.246;2023-07-09T09:36:17;38.20;28.10
4097;DHT22;2062;50.694;7.246;2023-07-09T09:38:45;38.30;27.20
4097;DHT22;2062;50.694;7.246;2023-07-09T09:41:14;38.50;27.70
4097;DHT22;2062;50.694;7.246;2023-07-09T09:43:44;38.50;27.00
4097;DHT22;2062;50.694;7.246;2023-07-09T09:46:17;38.50;23.80
4097;DHT22;2062;50.694;7.246;2023-07-09T09:48:47;38.60;24.10
4097;DHT22;2062;50.694;7.246;2023-07-09T09:51:14;38.60;23.70
4097;DHT22;2062;50.694;7.246;2023-07-09T09:53:46;38.50;23.70
4097;DHT22;2062;50.694;7.246;2023-07-09T09:56:17;38.60;23.70
4097;DHT22;2062;50.694;7.246;2023-07-09T09:58:44;38.60;24.80
4097;DHT22;2062;50.694;7.246;2023-07-09T10:01:14;38.60;24.80
4097;DHT22;2062;50.694;7.246;2023-07-09T10:03:42;38.70;25.10
4097;DHT22;2062;50.694;7.246;2023-07-09T10:06:15;38.70;23.80
4097;DHT22;2062;50.694;7.246;2023-07-09T10:08:51;38.60;23.80
4097;DHT22;2062;50.694;7.246;2023-07-09T10:11:31;38.60;24.00
4097;DHT22;2062;50.694;7.246;2023-07-09T10:14:11;38.40;23.50
4097;DHT22;2062;50.694;7.246;2023-07-09T10:16:44;38.40;24.10
4097;DHT22;2062;50.694;7.246;2023-07-09T10:19:16;38.30;21.70
4097;DHT22;2062;50.694;7.246;2023-07-09T10:21:51;38.20;24.70
4097;DHT22;2062;50.694;7.246;2023-07-09T10:24:37;38.20;25.00
4097;DHT22;2062;50.694;7.246;2023-07-09T10:27:11;38.20;24.70
4097;DHT22;2062;50.694;7.246;2023-07-09T10:29:53;38.30;25.40
4097;DHT22;2062;50.694;7.246;2023-07-09T10:32:50;38.30;24.30
4097;DHT22;2062;50.694;7.246;2023-07-09T10:35:25;38.30;24.80
4097;DHT22;2062;50.694;7.246;2023-07-09T10:38:07;38.30;23.00
4097;DHT22;2062;50.694;7.246;2023-07-09T10:40:39;38.30;24.70
4097;DHT22;2062;50.694;7.246;2023-07-09T10:43:13;38.30;24.70
4097;DHT22;2062;50.694;7.246;2023-07-09T10:45:46;38.40;25.00
4097;DHT22;2062;50.694;7.246;2023-07-09T10:48:16;38.50;22.70
4097;DHT22;2062;50.694;7.246;2023-07-09T10:50:47;38.40;22.50
4097;DHT22;2062;50.694;7.246;2023-07-09T10:53:36;38.50;24.10
4097;DHT22;2062;50.694;7.246;2023-07-09T10:56:07;38.60;23.80
4097;DHT22;2062;50.694;7.246;2023-07-09T10:58:40;38.60;22.70
4097;DHT22;2062;50.694;7.246;2023-07-09T11:01:12;38.60;23.10
4097;DHT22;2062;50.694;7.246;2023-07-09T11:03:43;38.70;22.90
4097;DHT22;2062;50.694;7.246;2023-07-09T11:06:18;38.80;22.90
4097;DHT22;2062;50.694;7.246;2023-07-09T11:08:48;38.90;23.70
4097;DHT22;2062;50.694;7.246;2023-07-09T11:11:24;39.10;24.20
4097;DHT22;2062;50.694;7.246;2023-07-09T11:13:54;39.20;23.80
4097;DHT22;2062;50.694;7.246;2023-07-09T11:16:27;39.40;24.00
4097;DHT22;2062;50.694;7.246;2023-07-09T11:18:58;39.50;23.50
4097;DHT22;2062;50.694;7.246;2023-07-09T11:21:26;39.70;22.90
4097;DHT22;2062;50.694;7.246;2023-07-09T11:23:56;39.80;22.20
4097;DHT22;2062;50.694;7.246;2023-07-09T11:26:27;39.80;22.80
4097;DHT22;2062;50.694;7.246;2023-07-09T11:28:56;39.90;22.20
4097;DHT22;2062;50.694;7.246;2023-07-09T11:31:24;40.10;22.70
4097;DHT22;2062;50.694;7.246;2023-07-09T11:34:07;40.10;22.50
4097;DHT22;2062;50.694;7.246;2023-07-09T11:36:46;40.20;22.30
4097;DHT22;2062;50.694;7.246;2023-07-09T11:39:26;40.30;22.40
4097;DHT22;2062;50.694;7.246;2023-07-09T11:41:54;40.40;21.60
4097;DHT22;2062;50.694;7.246;2023-07-09T11:44:23;40.40;21.30
4097;DHT22;2062;50.694;7.246;2023-07-09T11:47:13;40.40;21.80
4097;DHT22;2062;50.694;7.246;2023-07-09T11:49:49;40.50;21.30
4097;DHT22;2062;50.694;7.246;2023-07-09T11:52:22;40.50;22.10
4097;DHT22;2062;50.694;7.246;2023-07-09T11:54:52;40.60;21.60
4097;DHT22;2062;50.694;7.246;2023-07-09T11:57:20;40.60;21.80
4097;DHT22;2062;50.694;7.246;2023-07-09T11:59:46;40.70;21.80
4097;DHT22;2062;50.694;7.246;2023-07-09T12:02:17;40.80;21.50
4097;DHT22;2062;50.694;7.246;2023-07-09T12:04:48;40.80;20.90
4097;DHT22;2062;50.694;7.246;2023-07-09T12:07:15;40.80;20.90
4097;DHT22;2062;50.694;7.246;2023-07-09T12:09:47;40.90;20.70
4097;DHT22;2062;50.694;7.246;2023-07-09T12:12:19;41.00;21.20
4097;DHT22;2062;50.694;7.246;2023-07-09T12:14:47;41.00;21.50
4097;DHT22;2062;50.694;7.246;2023-07-09T12:17:14;41.10;20.80
4097;DHT22;2062;50.694;7.246;2023-07-09T12:19:41;41.10;20.70
4097;DHT22;2062;50.694;7.246;2023-07-09T12:22:14;41.10;20.70
4097;DHT22;2062;50.694;7.246;2023-07-09T12:24:44;41.20;20.40
4097;DHT22;2062;50.694;7.246;2023-07-09T12:27:21;41.20;20.70
4097;DHT22;2062;50.694;7.246;2023-07-09T12:29:51;41.20;20.00
4097;DHT22;2062;50.694;7.246;2023-07-09T12:32:18;41.20;19.70
4097;DHT22;2062;50.694;7.246;2023-07-09T12:34:50;41.20;19.60
4097;DHT22;2062;50.694;7.246;2023-07-09T12:37:19;41.10;19.50
4097;DHT22;2062;50.694;7.246;2023-07-09T12:39:49;41.00;19.80
4097;DHT22;2062;50.694;7.246;2023-07-09T12:42:20;41.00;19.70
4097;DHT22;2062;50.694;7.246;2023-07-09T12:44:49;40.90;19.10
4097;DHT22;2062;50.694;7.246;2023-07-09T12:47:18;40.80;19.00
4097;DHT22;2062;50.694;7.246;2023-07-09T12:49:46;40.70;19.20
4097;DHT22;2062;50.694;7.246;2023-07-09T12:52:19;40.60;19.10
4097;DHT22;2062;50.694;7.246;2023-07-09T12:54:55;40.50;19.20
4097;DHT22;2062;50.694;7.246;2023-07-09T12:57:24;40.40;18.70
4097;DHT22;2062;50.694;7.246;2023-07-09T12:59:53;40.20;19.20
4097;DHT22;2062;50.694;7.246;2023-07-09T13:02:22;40.10;19.50
4097;DHT22;2062;50.694;7.246;2023-07-09T13:04:57;40.00;19.60
4097;DHT22;2062;50.694;7.246;2023-07-09T13:07:31;40.00;19.90
4097;DHT22;2062;50.694;7.246;2023-07-09T13:10:05;39.90;19.70
4097;DHT22;2062;50.694;7.246;2023-07-09T13:12:34;40.00;19.70
4097;DHT22;2062;50.694;7.246;2023-07-09T13:15:01;40.00;20.00
4097;DHT22;2062;50.694;7.246;2023-07-09T13:17:30;40.00;19.80
4097;DHT22;2062;50.694;7.246;2023-07-09T13:19:57;40.00;19.70
4097;DHT22;2062;50.694;7.246;2023-07-09T13:22:25;40.10;19.70
4097;DHT22;2062;50.694;7.246;2023-07-09T13:24:51;40.10;19.40
4097;DHT22;2062;50.694;7.246;2023-07-09T13:27:18;40.10;19.30
4097;DHT22;2062;50.694;7.246;2023-07-09T13:29:46;40.00;19.00
4097;DHT22;2062;50.694;7.246;2023-07-09T13:32:15;40.00;19.10
4097;DHT22;2062;50.694;7.246;2023-07-09T13:34:42;39.90;18.70
4097;DHT22;2062;50.694;7.246;2023-07-09T13:37:12;39.80;18.70
4097;DHT22;2062;50.694;7.246;2023-07-09T13:39:39;39.60;18.80
4097;DHT22;2062;50.694;7.246;2023-07-09T13:42:10;39.70;19.00
4097;DHT22;2062;50.694;7.246;2023-07-09T13:44:38;39.60;19.40
4097;DHT22;2062;50.694;7.246;2023-07-09T13:47:11;39.50;19.80
4097;DHT22;2062;50.694;7.246;2023-07-09T13:49:38;39.30;21.60
4097;DHT22;2062;50.694;7.246;2023-07-09T13:52:08;39.30;22.90
4097;DHT22;2062;50.694;7.246;2023-07-09T13:54:35;39.10;23.30
4097;DHT22;2062;50.694;7.246;2023-07-09T13:57:04;38.90;23.50
4097;DHT22;2062;50.694;7.246;2023-07-09T13:59:32;38.70;21.60
4097;DHT22;2062;50.694;7.246;2023-07-09T14:01:59;38.40;21.30
4097;DHT22;2062;50.694;7.246;2023-07-09T14:04:28;38.20;22.20
4097;DHT22;2062;50.694;7.246;2023-07-09T14:06:55;37.90;23.80
4097;DHT22;2062;50.694;7.246;2023-07-09T14:09:22;37.60;24.40
4097;DHT22;2062;50.694;7.246;2023-07-09T14:11:50;37.30;25.80
4097;DHT22;2062;50.694;7.246;2023-07-09T14:14:19;36.90;26.00
4097;DHT22;2062;50.694;7.246;2023-07-09T14:16:47;36.70;27.20
4097;DHT22;2062;50.694;7.246;2023-07-09T14:19:16;36.30;27.80
4097;DHT22;2062;50.694;7.246;2023-07-09T14:21:45;36.00;28.30
4097;DHT22;2062;50.694;7.246;2023-07-09T14:24:20;35.60;28.60
4097;DHT22;2062;50.694;7.246;2023-07-09T14:26:47;35.40;29.80
4097;DHT22;2062;50.694;7.246;2023-07-09T14:29:15;35.00;29.50
4097;DHT22;2062;50.694;7.246;2023-07-09T14:31:42;34.70;29.20
4097;DHT22;2062;50.694;7.246;2023-07-09T14:34:27;34.40;29.30
4097;DHT22;2062;50.694;7.246;2023-07-09T14:36:57;34.10;29.60
4097;DHT22;2062;50.694;7.246;2023-07-09T14:39:27;33.90;28.30
4097;DHT22;2062;50.694;7.246;2023-07-09T14:41:54;33.60;28.00
4097;DHT22;2062;50.694;7.246;2023-07-09T14:44:25;33.50;27.90
4097;DHT22;2062;50.694;7.246;2023-07-09T14:46:54;33.30;27.80
4097;DHT22;2062;50.694;7.246;2023-07-09T14:49:21;33.10;27.90
4097;DHT22;2062;50.694;7.246;2023-07-09T14:51:49;32.90;28.80
4097;DHT22;2062;50.694;7.246;2023-07-09T14:54:23;32.80;30.90
4097;DHT22;2062;50.694;7.246;2023-07-09T14:56:52;32.60;31.60
4097;DHT22;2062;50.694;7.246;2023-07-09T14:59:20;32.40;31.60
4097;DHT22;2062;50.694;7.246;2023-07-09T15:01:47;32.10;31.80
4097;DHT22;2062;50.694;7.246;2023-07-09T15:04:26;31.90;32.00
4097;DHT22;2062;50.694;7.246;2023-07-09T15:06:55;31.70;33.40
4097;DHT22;2062;50.694;7.246;2023-07-09T15:09:25;31.40;33.30
4097;DHT22;2062;50.694;7.246;2023-07-09T15:11:54;31.20;34.20
4097;DHT22;2062;50.694;7.246;2023-07-09T15:14:21;31.00;36.00
4097;DHT22;2062;50.694;7.246;2023-07-09T15:16:48;30.70;36.50
4097;DHT22;2062;50.694;7.246;2023-07-09T15:19:17;30.40;37.30
4097;DHT22;2062;50.694;7.246;2023-07-09T15:21:45;30.10;37.30
4097;DHT22;2062;50.694;7.246;2023-07-09T15:24:17;29.90;37.70
4097;DHT22;2062;50.694;7.246;2023-07-09T15:26:49;29.50;38.60
4097;DHT22;2062;50.694;7.246;2023-07-09T15:29:18;29.30;38.80
4097;DHT22;2062;50.694;7.246;2023-07-09T15:31:45;29.00;39.40
4097;DHT22;2062;50.694;7.246;2023-07-09T15:34:12;28.80;39.10
4097;DHT22;2062;50.694;7.246;2023-07-09T15:36:41;28.70;39.40
4097;DHT22;2062;50.694;7.246;2023-07-09T15:39:11;28.50;39.90
4097;DHT22;2062;50.694;7.246;2023-07-09T15:41:38;28.30;40.40
4097;DHT22;2062;50.694;7.246;2023-07-09T15:44:09;28.20;40.60
4097;DHT22;2062;50.694;7.246;2023-07-09T15:46:36;28.00;40.90
4097;DHT22;2062;50.694;7.246;2023-07-09T15:49:04;27.90;41.10
4097;DHT22;2062;50.694;7.246;2023-07-09T15:51:31;27.80;41.80
4097;DHT22;2062;50.694;7.246;2023-07-09T15:53:57;27.70;41.20
4097;DHT22;2062;50.694;7.246;2023-07-09T15:56:27;27.60;40.90
4097;DHT22;2062;50.694;7.246;2023-07-09T15:58:56;27.60;40.90
4097;DHT22;2062;50.694;7.246;2023-07-09T16:01:25;27.50;41.00
4097;DHT22;2062;50.694;7.246;2023-07-09T16:03:58;27.40;42.10
4097;DHT22;2062;50.694;7.246;2023-07-09T16:06:26;27.30;42.40
4097;DHT22;2062;50.694;7.246;2023-07-09T16:08:53;27.30;42.40
4097;DHT22;2062;50.694;7.246;2023-07-09T16:11:23;27.20;43.40
4097;DHT22;2062;50.694;7.246;2023-07-09T16:13:51;27.10;43.90
4097;DHT22;2062;50.694;7.246;2023-07-09T16:16:20;27.10;43.60
4097;DHT22;2062;50.694;7.246;2023-07-09T16:18:48;27.00;43.30
4097;DHT22;2062;50.694;7.246;2023-07-09T16:21:22;26.90;43.60